sensor_id;sensor_type;location;lat;lon;timestamp;pressure;altitude;pressure_sealevel;temperature;humidity
11343;BME280;5726;42.160;24.746;2023-04-27T00:01:42;99041.28;;;13.66;70.41
11343;BME280;5726;42.160;24.746;2023-04-27T00:04:07;99044.31;;;13.73;70.02
11343;BME280;5726;42.160;24.746;2023-04-27T00:06:33;99045.53;;;13.84;69.70
11343;BME280;5726;42.160;24.746;2023-04-27T00:08:59;99045.72;;;13.71;70.38
11343;BME280;5726;42.160;24.746;2023-04-27T00:11:25;99051.88;;;13.80;69.95
11343;BME280;5726;42.160;24.746;2023-04-27T00:13:50;99059.19;;;13.71;70.39
11343;BME280;5726;42.160;24.746;2023-04-27T00:16:16;99057.13;;;13.68;70.43
11343;BME280;5726;42.160;24.746;2023-04-27T00:18:41;99063.47;;;13.72;70.29
11343;BME280;5726;42.160;24.746;2023-04-27T00:21:08;99058.44;;;13.45;71.34
11343;BME280;5726;42.160;24.746;2023-04-27T00:23:33;99061.75;;;13.59;71.09
11343;BME280;5726;42.160;24.746;2023-04-27T00:26:00;99065.84;;;13.73;70.89
11343;BME280;5726;42.160;24.746;2023-04-27T00:28:26;99072.16;;;13.77;69.93
11343;BME280;5726;42.160;24.746;2023-04-27T00:30:51;99068.88;;;13.72;70.52
11343;BME280;5726;42.160;24.746;2023-04-27T00:33:19;99076.47;;;13.61;70.88
11343;BME280;5726;42.160;24.746;2023-04-27T00:35:45;99084.09;;;13.51;70.95
11343;BME280;5726;42.160;24.746;2023-04-27T00:38:10;99090.41;;;13.38;71.80
11343;BME280;5726;42.160;24.746;2023-04-27T00:40:37;99088.03;;;13.53;72.01
11343;BME280;5726;42.160;24.746;2023-04-27T00:43:02;99085.66;;;13.52;72.24
11343;BME280;5726;42.160;24.746;2023-04-27T00:45:28;99089.63;;;13.54;71.96
11343;BME280;5726;42.160;24.746;2023-04-27T00:47:54;99087.72;;;13.55;71.66
11343;BME280;5726;42.160;24.746;2023-04-27T00:50:29;99094.88;;;13.51;70.82
11343;BME280;5726;42.160;24.746;2023-04-27T00:52:55;99085.66;;;13.52;71.23
11343;BME280;5726;42.160;24.746;2023-04-27T00:55:24;99088.34;;;13.27;72.34
11343;BME280;5726;42.160;24.746;2023-04-27T00:57:49;99088.69;;;13.42;71.51
11343;BME280;5726;42.160;24.746;2023-04-27T01:00:15;99086.00;;;13.42;70.50
11343;BME280;5726;42.160;24.746;2023-04-27T01:02:41;99094.22;;;13.20;71.25
11343;BME280;5726;42.160;24.746;2023-04-27T01:05:07;99092.31;;;13.12;72.16
11343;BME280;5726;42.160;24.746;2023-04-27T01:07:37;99087.72;;;13.30;70.60
11343;BME280;5726;42.160;24.746;2023-04-27T01:10:04;99088.66;;;13.17;70.64
11343;BME280;5726;42.160;24.746;2023-04-27T01:12:29;99099.56;;;13.12;70.61
11343;BME280;5726;42.160;24.746;2023-04-27T01:14:55;99109.09;;;13.26;69.74
11343;BME280;5726;42.160;24.746;2023-04-27T01:17:21;99106.25;;;13.23;69.47
11343;BME280;5726;42.160;24.746;2023-04-27T01:19:46;99115.72;;;13.03;69.42
11343;BME280;5726;42.160;24.746;2023-04-27T01:22:11;99113.84;;;13.21;69.72
11343;BME280;5726;42.160;24.746;2023-04-27T01:24:39;99112.41;;;13.23;68.65
11343;BME280;5726;42.160;24.746;2023-04-27T01:27:05;99128.09;;;13.21;69.07
11343;BME280;5726;42.160;24.746;2023-04-27T01:29:30;99123.34;;;13.27;68.04
11343;BME280;5726;42.160;24.746;2023-04-27T01:31:56;99121.28;;;13.24;68.13
11343;BME280;5726;42.160;24.746;2023-04-27T01:34:21;99126.16;;;13.13;68.04
11343;BME280;5726;42.160;24.746;2023-04-27T01:36:47;99126.34;;;13.17;67.61
11343;BME280;5726;42.160;24.746;2023-04-27T01:39:12;99131.28;;;13.23;67.38
11343;BME280;5726;42.160;24.746;2023-04-27T01:41:37;99146.13;;;13.21;67.35
11343;BME280;5726;42.160;24.746;2023-04-27T01:44:03;99148.38;;;13.27;66.88
11343;BME280;5726;42.160;24.746;2023-04-27T01:46:28;99141.69;;;13.16;67.05
11343;BME280;5726;42.160;24.746;2023-04-27T01:48:54;99148.94;;;13.07;67.51
11343;BME280;5726;42.160;24.746;2023-04-27T01:51:20;99150.78;;;13.45;65.88
11343;BME280;5726;42.160;24.746;2023-04-27T01:53:45;99142.00;;;13.06;67.72
11343;BME280;5726;42.160;24.746;2023-04-27T01:56:11;99143.13;;;13.14;67.44
11343;BME280;5726;42.160;24.746;2023-04-27T01:58:36;99146.44;;;13.11;67.32
11343;BME280;5726;42.160;24.746;2023-04-27T02:01:01;99149.31;;;13.31;66.71
11343;BME280;5726;42.160;24.746;2023-04-27T02:03:27;99153.94;;;13.47;65.81
11343;BME280;5726;42.160;24.746;2023-04-27T02:05:52;99158.53;;;13.30;67.25
11343;BME280;5726;42.160;24.746;2023-04-27T02:08:18;99160.78;;;13.45;65.65
11343;BME280;5726;42.160;24.746;2023-04-27T02:10:43;99166.78;;;13.42;65.82
11343;BME280;5726;42.160;24.746;2023-04-27T02:13:09;99160.69;;;13.11;66.79
11343;BME280;5726;42.160;24.746;2023-04-27T02:15:34;99167.41;;;13.39;65.61
11343;BME280;5726;42.160;24.746;2023-04-27T02:18:00;99164.22;;;13.29;66.11
11343;BME280;5726;42.160;24.746;2023-04-27T02:20:28;99158.81;;;13.20;66.02
11343;BME280;5726;42.160;24.746;2023-04-27T02:22:53;99173.56;;;13.23;66.00
11343;BME280;5726;42.160;24.746;2023-04-27T02:25:19;99171.53;;;13.45;65.77
11343;BME280;5726;42.160;24.746;2023-04-27T02:27:45;99171.22;;;13.46;65.08
11343;BME280;5726;42.160;24.746;2023-04-27T02:30:11;99180.06;;;13.30;65.74
11343;BME280;5726;42.160;24.746;2023-04-27T02:32:36;99173.06;;;13.21;66.36
11343;BME280;5726;42.160;24.746;2023-04-27T02:35:03;99182.22;;;13.11;66.09
11343;BME280;5726;42.160;24.746;2023-04-27T02:37:28;99182.91;;;13.34;64.79
11343;BME280;5726;42.160;24.746;2023-04-27T02:39:54;99181.63;;;13.23;65.14
11343;BME280;5726;42.160;24.746;2023-04-27T02:42:20;99183.22;;;13.32;64.97
11343;BME280;5726;42.160;24.746;2023-04-27T02:44:45;99193.06;;;13.37;64.71
11343;BME280;5726;42.160;24.746;2023-04-27T02:47:11;99182.44;;;13.32;64.93
11343;BME280;5726;42.160;24.746;2023-04-27T02:49:36;99191.63;;;13.31;64.89
11343;BME280;5726;42.160;24.746;2023-04-27T02:52:02;99194.34;;;13.39;64.39
11343;BME280;5726;42.160;24.746;2023-04-27T02:54:28;99194.63;;;13.29;64.76
11343;BME280;5726;42.160;24.746;2023-04-27T02:56:53;99202.41;;;13.39;64.16
11343;BME280;5726;42.160;24.746;2023-04-27T02:59:19;99197.81;;;13.39;63.86
11343;BME280;5726;42.160;24.746;2023-04-27T03:01:45;99200.03;;;13.46;63.51
11343;BME280;5726;42.160;24.746;2023-04-27T03:04:10;99201.28;;;13.40;64.19
11343;BME280;5726;42.160;24.746;2023-04-27T03:06:38;99199.06;;;13.34;64.10
11343;BME280;5726;42.160;24.746;2023-04-27T03:09:04;99201.25;;;13.23;64.12
11343;BME280;5726;42.160;24.746;2023-04-27T03:11:29;99202.72;;;13.38;64.12
11343;BME280;5726;42.160;24.746;2023-04-27T03:13:55;99208.00;;;13.51;63.32
11343;BME280;5726;42.160;24.746;2023-04-27T03:16:20;99208.28;;;13.41;63.56
11343;BME280;5726;42.160;24.746;2023-04-27T03:18:46;99211.44;;;13.43;63.02
11343;BME280;5726;42.160;24.746;2023-04-27T03:21:12;99216.50;;;13.44;63.06
11343;BME280;5726;42.160;24.746;2023-04-27T03:23:38;99217.41;;;13.23;63.38
11343;BME280;5726;42.160;24.746;2023-04-27T03:26:09;99227.81;;;13.08;63.75
11343;BME280;5726;42.160;24.746;2023-04-27T03:28:35;99225.03;;;13.21;63.48
11343;BME280;5726;42.160;24.746;2023-04-27T03:31:12;99223.84;;;13.05;64.60
11343;BME280;5726;42.160;24.746;2023-04-27T03:33:39;99222.94;;;13.18;63.84
11343;BME280;5726;42.160;24.746;2023-04-27T03:36:06;99226.44;;;13.19;63.68
11343;BME280;5726;42.160;24.746;2023-04-27T03:38:33;99228.41;;;12.96;64.78
11343;BME280;5726;42.160;24.746;2023-04-27T03:40:59;99226.06;;;13.03;64.34
11343;BME280;5726;42.160;24.746;2023-04-27T03:43:25;99236.56;;;13.22;63.74
11343;BME280;5726;42.160;24.746;2023-04-27T03:45:51;99234.81;;;13.17;63.80
11343;BME280;5726;42.160;24.746;2023-04-27T03:48:16;99233.22;;;13.16;63.57
11343;BME280;5726;42.160;24.746;2023-04-27T03:50:42;99233.28;;;13.33;63.24
11343;BME280;5726;42.160;24.746;2023-04-27T03:53:08;99243.06;;;13.21;63.50
11343;BME280;5726;42.160;24.746;2023-04-27T03:55:41;99243.97;;;13.16;63.89
11343;BME280;5726;42.160;24.746;2023-04-27T03:58:07;99252.88;;;13.25;63.12
11343;BME280;5726;42.160;24.746;2023-04-27T04:00:34;99251.84;;;13.04;63.94
11343;BME280;5726;42.160;24.746;2023-04-27T04:03:00;99244.28;;;13.06;63.21
11343;BME280;5726;42.160;24.746;2023-04-27T04:05:26;99257.94;;;12.88;64.00
11343;BME280;5726;42.160;24.746;2023-04-27T04:07:52;99258.16;;;13.00;63.95
11343;BME280;5726;42.160;24.746;2023-04-27T04:10:17;99254.22;;;13.06;63.43
11343;BME280;5726;42.160;24.746;2023-04-27T04:12:42;99262.34;;;13.14;62.99
11343;BME280;5726;42.160;24.746;2023-04-27T04:15:08;99263.94;;;13.15;62.90
11343;BME280;5726;42.160;24.746;2023-04-27T04:17:33;99266.13;;;13.05;63.77
11343;BME280;5726;42.160;24.746;2023-04-27T04:19:59;99270.16;;;13.24;62.18
11343;BME280;5726;42.160;24.746;2023-04-27T04:22:25;99273.81;;;13.28;62.42
11343;BME280;5726;42.160;24.746;2023-04-27T04:24:51;99273.41;;;13.51;61.76
11343;BME280;5726;42.160;24.746;2023-04-27T04:27:16;99278.06;;;13.68;60.95
11343;BME280;5726;42.160;24.746;2023-04-27T04:29:41;99279.81;;;13.72;66.61
11343;BME280;5726;42.160;24.746;2023-04-27T04:32:07;99287.59;;;13.82;64.79
11343;BME280;5726;42.160;24.746;2023-04-27T04:34:34;99284.66;;;14.09;61.55
11343;BME280;5726;42.160;24.746;2023-04-27T04:37:00;99285.75;;;14.25;59.85
11343;BME280;5726;42.160;24.746;2023-04-27T04:39:30;99278.41;;;13.91;60.75
11343;BME280;5726;42.160;24.746;2023-04-27T04:41:55;99283.94;;;13.78;62.00
11343;BME280;5726;42.160;24.746;2023-04-27T04:44:21;99293.31;;;13.81;60.20
11343;BME280;5726;42.160;24.746;2023-04-27T04:46:47;99288.47;;;13.52;62.63
11343;BME280;5726;42.160;24.746;2023-04-27T04:49:12;99299.13;;;13.66;61.36
11343;BME280;5726;42.160;24.746;2023-04-27T04:51:43;99293.56;;;13.54;61.08
11343;BME280;5726;42.160;24.746;2023-04-27T04:54:09;99305.84;;;13.38;61.14
11343;BME280;5726;42.160;24.746;2023-04-27T04:56:35;99303.34;;;13.50;61.35
11343;BME280;5726;42.160;24.746;2023-04-27T04:59:01;99301.34;;;13.72;60.36
11343;BME280;5726;42.160;24.746;2023-04-27T05:01:26;99314.00;;;13.63;60.58
11343;BME280;5726;42.160;24.746;2023-04-27T05:03:52;99309.84;;;13.49;61.39
11343;BME280;5726;42.160;24.746;2023-04-27T05:06:17;99314.28;;;13.53;60.96
11343;BME280;5726;42.160;24.746;2023-04-27T05:08:43;99321.44;;;13.58;61.01
11343;BME280;5726;42.160;24.746;2023-04-27T05:11:08;99318.22;;;13.39;61.87
11343;BME280;5726;42.160;24.746;2023-04-27T05:13:34;99324.13;;;13.58;61.75
11343;BME280;5726;42.160;24.746;2023-04-27T05:16:03;99326.66;;;13.54;61.75
11343;BME280;5726;42.160;24.746;2023-04-27T05:18:29;99336.22;;;13.69;61.74
11343;BME280;5726;42.160;24.746;2023-04-27T05:20:54;99327.44;;;13.55;61.66
11343;BME280;5726;42.160;24.746;2023-04-27T05:23:20;99321.66;;;13.78;60.63
11343;BME280;5726;42.160;24.746;2023-04-27T05:25:45;99331.66;;;13.78;60.14
11343;BME280;5726;42.160;24.746;2023-04-27T05:28:11;99328.16;;;13.69;61.03
11343;BME280;5726;42.160;24.746;2023-04-27T05:30:36;99332.53;;;13.56;62.15
11343;BME280;5726;42.160;24.746;2023-04-27T05:33:02;99340.88;;;13.93;60.89
11343;BME280;5726;42.160;24.746;2023-04-27T05:35:29;99326.31;;;13.47;61.60
11343;BME280;5726;42.160;24.746;2023-04-27T05:37:55;99337.78;;;13.61;63.64
11343;BME280;5726;42.160;24.746;2023-04-27T05:40:21;99334.44;;;13.56;66.66
11343;BME280;5726;42.160;24.746;2023-04-27T05:42:47;99332.94;;;13.88;62.90
11343;BME280;5726;42.160;24.746;2023-04-27T05:45:12;99326.06;;;14.21;59.12
11343;BME280;5726;42.160;24.746;2023-04-27T05:47:38;99345.44;;;13.76;61.14
11343;BME280;5726;42.160;24.746;2023-04-27T05:50:04;99342.25;;;13.74;61.09
11343;BME280;5726;42.160;24.746;2023-04-27T05:52:29;99343.09;;;13.91;60.41
11343;BME280;5726;42.160;24.746;2023-04-27T05:54:56;99348.41;;;14.22;59.17
11343;BME280;5726;42.160;24.746;2023-04-27T05:57:23;99352.72;;;14.48;58.43
11343;BME280;5726;42.160;24.746;2023-04-27T05:59:48;99356.84;;;14.37;58.81
11343;BME280;5726;42.160;24.746;2023-04-27T06:02:13;99361.13;;;14.38;59.30
11343;BME280;5726;42.160;24.746;2023-04-27T06:04:39;99360.97;;;14.43;58.18
11343;BME280;5726;42.160;24.746;2023-04-27T06:07:09;99366.34;;;14.26;58.12
11343;BME280;5726;42.160;24.746;2023-04-27T06:09:35;99361.56;;;14.06;57.89
11343;BME280;5726;42.160;24.746;2023-04-27T06:12:02;99359.00;;;14.01;59.29
11343;BME280;5726;42.160;24.746;2023-04-27T06:14:29;99366.56;;;13.99;58.79
11343;BME280;5726;42.160;24.746;2023-04-27T06:16:54;99365.53;;;14.17;58.72
11343;BME280;5726;42.160;24.746;2023-04-27T06:19:20;99362.47;;;14.02;57.85
11343;BME280;5726;42.160;24.746;2023-04-27T06:21:45;99366.53;;;13.83;58.73
11343;BME280;5726;42.160;24.746;2023-04-27T06:24:11;99366.66;;;13.69;57.54
11343;BME280;5726;42.160;24.746;2023-04-27T06:26:36;99356.97;;;13.60;58.27
11343;BME280;5726;42.160;24.746;2023-04-27T06:29:02;99366.59;;;13.52;59.39
11343;BME280;5726;42.160;24.746;2023-04-27T06:31:28;99359.97;;;13.58;58.05
11343;BME280;5726;42.160;24.746;2023-04-27T06:33:54;99366.09;;;13.50;58.60
11343;BME280;5726;42.160;24.746;2023-04-27T06:36:19;99372.41;;;13.46;59.14
11343;BME280;5726;42.160;24.746;2023-04-27T06:38:45;99366.75;;;13.56;59.43
11343;BME280;5726;42.160;24.746;2023-04-27T06:41:11;99362.59;;;13.50;59.52
11343;BME280;5726;42.160;24.746;2023-04-27T06:43:36;99364.94;;;13.43;59.45
11343;BME280;5726;42.160;24.746;2023-04-27T06:46:02;99365.00;;;13.21;59.90
11343;BME280;5726;42.160;24.746;2023-04-27T06:48:27;99366.22;;;13.45;60.19
11343;BME280;5726;42.160;24.746;2023-04-27T06:50:53;99373.38;;;13.50;60.22
11343;BME280;5726;42.160;24.746;2023-04-27T06:53:18;99367.44;;;13.70;59.73
11343;BME280;5726;42.160;24.746;2023-04-27T06:55:44;99365.97;;;13.64;60.46
11343;BME280;5726;42.160;24.746;2023-04-27T06:58:09;99370.22;;;13.86;60.42
11343;BME280;5726;42.160;24.746;2023-04-27T07:00:35;99369.78;;;14.01;59.39
11343;BME280;5726;42.160;24.746;2023-04-27T07:03:00;99375.78;;;13.98;59.57
11343;BME280;5726;42.160;24.746;2023-04-27T07:05:27;99369.78;;;14.01;59.44
11343;BME280;5726;42.160;24.746;2023-04-27T07:07:52;99376.13;;;14.05;59.86
11343;BME280;5726;42.160;24.746;2023-04-27T07:10:18;99372.94;;;14.03;60.11
11343;BME280;5726;42.160;24.746;2023-04-27T07:12:43;99375.63;;;14.03;60.05
11343;BME280;5726;42.160;24.746;2023-04-27T07:15:09;99371.44;;;14.36;59.40
11343;BME280;5726;42.160;24.746;2023-04-27T07:17:34;99374.13;;;14.53;58.31
11343;BME280;5726;42.160;24.746;2023-04-27T07:20:00;99373.81;;;14.37;59.09
11343;BME280;5726;42.160;24.746;2023-04-27T07:22:27;99362.88;;;14.34;59.60
11343;BME280;5726;42.160;24.746;2023-04-27T07:24:53;99364.94;;;14.37;59.10
11343;BME280;5726;42.160;24.746;2023-04-27T07:27:18;99371.75;;;14.60;59.50
11343;BME280;5726;42.160;24.746;2023-04-27T07:29:44;99368.75;;;14.53;58.73
11343;BME280;5726;42.160;24.746;2023-04-27T07:32:10;99368.59;;;14.66;58.83
11343;BME280;5726;42.160;24.746;2023-04-27T07:34:35;99370.00;;;14.72;59.28
11343;BME280;5726;42.160;24.746;2023-04-27T07:37:01;99367.13;;;15.02;60.20
11343;BME280;5726;42.160;24.746;2023-04-27T07:39:26;99371.41;;;15.03;58.56
11343;BME280;5726;42.160;24.746;2023-04-27T07:41:52;99368.56;;;15.08;58.33
11343;BME280;5726;42.160;24.746;2023-04-27T07:44:18;99369.94;;;15.31;57.54
11343;BME280;5726;42.160;24.746;2023-04-27T07:46:44;99371.50;;;15.40;57.21
11343;BME280;5726;42.160;24.746;2023-04-27T07:49:13;99369.00;;;15.73;57.28
11343;BME280;5726;42.160;24.746;2023-04-27T07:51:38;99366.94;;;15.70;56.29
11343;BME280;5726;42.160;24.746;2023-04-27T07:54:04;99366.84;;;15.58;56.00
11343;BME280;5726;42.160;24.746;2023-04-27T07:56:31;99365.09;;;15.90;52.98
11343;BME280;5726;42.160;24.746;2023-04-27T07:58:57;99361.06;;;15.68;52.99
11343;BME280;5726;42.160;24.746;2023-04-27T08:01:23;99366.97;;;15.61;54.14
11343;BME280;5726;42.160;24.746;2023-04-27T08:03:48;99367.59;;;15.67;55.37
11343;BME280;5726;42.160;24.746;2023-04-27T08:06:14;99367.75;;;15.62;54.26
11343;BME280;5726;42.160;24.746;2023-04-27T08:08:39;99363.97;;;15.91;51.76
11343;BME280;5726;42.160;24.746;2023-04-27T08:11:08;99365.53;;;15.64;52.44
11343;BME280;5726;42.160;24.746;2023-04-27T08:13:34;99357.16;;;15.85;52.48
11343;BME280;5726;42.160;24.746;2023-04-27T08:16:00;99351.59;;;15.90;52.91
11343;BME280;5726;42.160;24.746;2023-04-27T08:18:26;99351.84;;;15.97;53.14
11343;BME280;5726;42.160;24.746;2023-04-27T08:20:52;99361.66;;;15.81;53.08
11343;BME280;5726;42.160;24.746;2023-04-27T08:23:17;99355.84;;;15.91;53.17
11343;BME280;5726;42.160;24.746;2023-04-27T08:25:43;99351.88;;;16.26;52.63
11343;BME280;5726;42.160;24.746;2023-04-27T08:28:08;99346.06;;;16.56;51.70
11343;BME280;5726;42.160;24.746;2023-04-27T08:30:34;99337.47;;;16.34;52.72
11343;BME280;5726;42.160;24.746;2023-04-27T08:32:59;99346.25;;;16.51;52.05
11343;BME280;5726;42.160;24.746;2023-04-27T08:35:25;99350.16;;;16.62;52.05
11343;BME280;5726;42.160;24.746;2023-04-27T08:37:50;99346.88;;;16.89;50.77
11343;BME280;5726;42.160;24.746;2023-04-27T08:40:16;99342.53;;;17.08;49.99
11343;BME280;5726;42.160;24.746;2023-04-27T08:42:53;99343.16;;;16.93;49.85
11343;BME280;5726;42.160;24.746;2023-04-27T08:45:21;99331.38;;;16.77;50.66
11343;BME280;5726;42.160;24.746;2023-04-27T08:47:48;99329.88;;;17.00;50.35
11343;BME280;5726;42.160;24.746;2023-04-27T08:50:13;99328.97;;;16.96;50.37
11343;BME280;5726;42.160;24.746;2023-04-27T08:52:39;99336.28;;;17.28;50.39
11343;BME280;5726;42.160;24.746;2023-04-27T08:55:05;99332.91;;;17.31;51.30
11343;BME280;5726;42.160;24.746;2023-04-27T08:57:32;99328.69;;;17.66;51.57
11343;BME280;5726;42.160;24.746;2023-04-27T08:59:58;99330.91;;;17.87;49.68
11343;BME280;5726;42.160;24.746;2023-04-27T09:02:25;99326.28;;;18.00;50.21
11343;BME280;5726;42.160;24.746;2023-04-27T09:04:54;99326.16;;;18.20;49.83
11343;BME280;5726;42.160;24.746;2023-04-27T09:07:20;99321.13;;;18.46;49.47
11343;BME280;5726;42.160;24.746;2023-04-27T09:09:45;99322.97;;;18.30;48.33
11343;BME280;5726;42.160;24.746;2023-04-27T09:12:17;99307.13;;;18.32;48.30
11343;BME280;5726;42.160;24.746;2023-04-27T09:14:52;99307.34;;;18.39;47.76
11343;BME280;5726;42.160;24.746;2023-04-27T09:17:26;99314.16;;;18.60;45.00
11343;BME280;5726;42.160;24.746;2023-04-27T09:20:05;99307.56;;;18.46;45.91
11343;BME280;5726;42.160;24.746;2023-04-27T09:22:51;99310.63;;;18.44;46.05
11343;BME280;5726;42.160;24.746;2023-04-27T09:25:37;99304.19;;;18.37;46.84
11343;BME280;5726;42.160;24.746;2023-04-27T09:28:02;99306.38;;;18.59;45.54
11343;BME280;5726;42.160;24.746;2023-04-27T09:30:28;99308.34;;;18.73;46.15
11343;BME280;5726;42.160;24.746;2023-04-27T09:32:56;99302.03;;;18.69;46.22
11343;BME280;5726;42.160;24.746;2023-04-27T09:35:26;99302.75;;;18.67;45.74
11343;BME280;5726;42.160;24.746;2023-04-27T09:37:53;99301.13;;;18.93;46.65
11343;BME280;5726;42.160;24.746;2023-04-27T09:40:21;99293.13;;;19.12;45.81
11343;BME280;5726;42.160;24.746;2023-04-27T09:42:59;99300.44;;;18.41;46.41
11343;BME280;5726;42.160;24.746;2023-04-27T09:45:27;99297.41;;;18.43;46.70
11343;BME280;5726;42.160;24.746;2023-04-27T09:47:53;99296.31;;;18.59;46.07
11343;BME280;5726;42.160;24.746;2023-04-27T09:50:18;99295.50;;;18.31;46.54
11343;BME280;5726;42.160;24.746;2023-04-27T09:52:45;99293.81;;;18.54;46.44
11343;BME280;5726;42.160;24.746;2023-04-27T09:55:19;99295.59;;;18.35;46.96
11343;BME280;5726;42.160;24.746;2023-04-27T09:58:17;99295.63;;;18.11;48.66
11343;BME280;5726;42.160;24.746;2023-04-27T10:01:06;99300.50;;;18.18;49.37
11343;BME280;5726;42.160;24.746;2023-04-27T10:09:25;99282.53;;;18.52;45.04
11343;BME280;5726;42.160;24.746;2023-04-27T10:11:53;99294.94;;;18.02;48.41
11343;BME280;5726;42.160;24.746;2023-04-27T10:14:21;99289.69;;;18.45;47.13
11343;BME280;5726;42.160;24.746;2023-04-27T10:16:50;99296.59;;;18.42;49.59
11343;BME280;5726;42.160;24.746;2023-04-27T10:19:17;99293.59;;;18.08;50.64
11343;BME280;5726;42.160;24.746;2023-04-27T10:21:59;99286.97;;;18.45;50.62
11343;BME280;5726;42.160;24.746;2023-04-27T10:24:43;99290.81;;;18.44;49.70
11343;BME280;5726;42.160;24.746;2023-04-27T10:27:15;99286.13;;;18.17;51.09
11343;BME280;5726;42.160;24.746;2023-04-27T10:29:45;99291.00;;;18.12;51.08
11343;BME280;5726;42.160;24.746;2023-04-27T10:32:23;99287.72;;;18.18;52.00
11343;BME280;5726;42.160;24.746;2023-04-27T10:34:50;99280.94;;;18.12;50.93
11343;BME280;5726;42.160;24.746;2023-04-27T10:37:17;99294.78;;;17.60;51.91
11343;BME280;5726;42.160;24.746;2023-04-27T10:39:49;99300.97;;;17.72;51.90
11343;BME280;5726;42.160;24.746;2023-04-27T10:42:27;99296.34;;;17.84;51.64
11343;BME280;5726;42.160;24.746;2023-04-27T10:44:56;99306.06;;;17.73;51.64
11343;BME280;5726;42.160;24.746;2023-04-27T10:47:21;99309.00;;;17.69;49.10
11343;BME280;5726;42.160;24.746;2023-04-27T10:49:51;99309.22;;;17.75;47.69
11343;BME280;5726;42.160;24.746;2023-04-27T10:52:17;99303.09;;;18.02;47.64
11343;BME280;5726;42.160;24.746;2023-04-27T10:54:45;99307.16;;;18.08;46.90
11343;BME280;5726;42.160;24.746;2023-04-27T10:57:11;99309.56;;;17.86;47.16
11343;BME280;5726;42.160;24.746;2023-04-27T10:59:51;99313.28;;;17.58;46.64
11343;BME280;5726;42.160;24.746;2023-04-27T11:02:24;99305.03;;;18.02;46.45
11343;BME280;5726;42.160;24.746;2023-04-27T11:04:50;99316.19;;;18.12;46.16
11343;BME280;5726;42.160;24.746;2023-04-27T11:07:26;99304.69;;;18.15;46.33
11343;BME280;5726;42.160;24.746;2023-04-27T11:09:53;99310.09;;;18.27;46.20
11343;BME280;5726;42.160;24.746;2023-04-27T11:12:18;99305.06;;;18.41;45.68
11343;BME280;5726;42.160;24.746;2023-04-27T11:14:44;99310.47;;;18.53;45.37
11343;BME280;5726;42.160;24.746;2023-04-27T11:17:10;99314.69;;;18.50;44.76
11343;BME280;5726;42.160;24.746;2023-04-27T11:19:44;99313.91;;;18.38;44.95
11343;BME280;5726;42.160;24.746;2023-04-27T11:22:11;99310.91;;;18.16;45.61
11343;BME280;5726;42.160;24.746;2023-04-27T11:24:45;99319.97;;;18.47;45.38
11343;BME280;5726;42.160;24.746;2023-04-27T11:27:12;99309.50;;;18.33;45.17
11343;BME280;5726;42.160;24.746;2023-04-27T11:29:37;99308.25;;;18.43;44.14
11343;BME280;5726;42.160;24.746;2023-04-27T11:32:04;99313.56;;;18.78;42.93
11343;BME280;5726;42.160;24.746;2023-04-27T11:34:29;99320.63;;;18.56;42.53
11343;BME280;5726;42.160;24.746;2023-04-27T11:37:04;99311.44;;;18.33;42.36
11343;BME280;5726;42.160;24.746;2023-04-27T11:39:38;99323.66;;;18.27;42.52
11343;BME280;5726;42.160;24.746;2023-04-27T11:42:22;99322.09;;;18.14;43.44
11343;BME280;5726;42.160;24.746;2023-04-27T11:44:56;99316.91;;;17.97;42.46
11343;BME280;5726;42.160;24.746;2023-04-27T11:47:23;99318.94;;;18.24;43.73
11343;BME280;5726;42.160;24.746;2023-04-27T11:49:50;99312.53;;;18.44;43.06
11343;BME280;5726;42.160;24.746;2023-04-27T11:52:17;99299.75;;;18.71;41.44
11343;BME280;5726;42.160;24.746;2023-04-27T11:54:50;99309.56;;;18.61;41.80
11343;BME280;5726;42.160;24.746;2023-04-27T11:57:22;99312.31;;;18.76;42.58
11343;BME280;5726;42.160;24.746;2023-04-27T11:59:49;99318.72;;;18.83;41.43
11343;BME280;5726;42.160;24.746;2023-04-27T12:02:14;99307.50;;;19.12;40.85
11343;BME280;5726;42.160;24.746;2023-04-27T12:04:41;99313.84;;;19.16;41.42
11343;BME280;5726;42.160;24.746;2023-04-27T12:07:06;99318.50;;;19.16;41.51
11343;BME280;5726;42.160;24.746;2023-04-27T12:09:32;99312.44;;;19.22;39.82
11343;BME280;5726;42.160;24.746;2023-04-27T12:11:58;99307.88;;;18.99;39.72
11343;BME280;5726;42.160;24.746;2023-04-27T12:14:24;99311.91;;;18.89;39.96
11343;BME280;5726;42.160;24.746;2023-04-27T12:16:49;99318.25;;;18.93;40.55
11343;BME280;5726;42.160;24.746;2023-04-27T12:19:15;99317.94;;;19.10;40.06
11343;BME280;5726;42.160;24.746;2023-04-27T12:21:41;99311.03;;;19.28;38.85
11343;BME280;5726;42.160;24.746;2023-04-27T12:24:07;99308.25;;;19.24;37.86
11343;BME280;5726;42.160;24.746;2023-04-27T12:26:32;99309.97;;;19.17;39.38
11343;BME280;5726;42.160;24.746;2023-04-27T12:28:58;99309.63;;;19.18;39.38
11343;BME280;5726;42.160;24.746;2023-04-27T12:31:23;99309.00;;;19.25;39.38
11343;BME280;5726;42.160;24.746;2023-04-27T12:33:49;99310.41;;;19.19;39.46
11343;BME280;5726;42.160;24.746;2023-04-27T12:36:16;99305.75;;;19.19;39.42
11343;BME280;5726;42.160;24.746;2023-04-27T12:38:41;99304.00;;;19.12;39.56
11343;BME280;5726;42.160;24.746;2023-04-27T12:41:07;99306.38;;;19.28;38.94
11343;BME280;5726;42.160;24.746;2023-04-27T12:43:33;99300.84;;;19.40;37.94
11343;BME280;5726;42.160;24.746;2023-04-27T12:46:00;99299.19;;;19.36;38.04
11343;BME280;5726;42.160;24.746;2023-04-27T12:48:26;99305.34;;;19.33;39.59
11343;BME280;5726;42.160;24.746;2023-04-27T12:50:51;99308.91;;;19.06;39.69
11343;BME280;5726;42.160;24.746;2023-04-27T12:53:17;99299.78;;;18.87;39.21
11343;BME280;5726;42.160;24.746;2023-04-27T12:55:42;99301.22;;;18.42;43.06
11343;BME280;5726;42.160;24.746;2023-04-27T12:58:08;99305.97;;;18.45;44.75
11343;BME280;5726;42.160;24.746;2023-04-27T13:00:33;99309.22;;;18.62;43.96
11343;BME280;5726;42.160;24.746;2023-04-27T13:02:59;99306.38;;;18.59;42.26
11343;BME280;5726;42.160;24.746;2023-04-27T13:05:26;99304.13;;;18.61;42.47